Time;durP1;ratioP1;P1;durP2;ratioP2;P2;SDS_P1;SDS_P2;PMS_P1;PMS_P2;Temp;Humidity;BMP_temperature;BMP_pressure;BME280_temperature;BME280_humidity;BME280_pressure;Samples;Min_cycle;Max_cycle;Signal;HPM_P1;HPM_P2
2021/12/27 00:00:29;;;;;;;9.20;6.12;;;;;;;5.84;43.46;100007.61;1776153;80;21030;-61
2021/12/27 00:03:00;;;;;;;9.90;6.53;;;;;;;5.84;43.46;100007.61;1756245;79;21005;-61
2021/12/27 00:05:28;;;;;;;10.20;7.22;;;;;;;5.83;43.47;100004.61;1767240;80;21137;-60
2021/12/27 00:07:54;;;;;;;9.50;6.40;;;;;;;5.83;43.47;100015.16;1756533;79;21065;-60
2021/12/27 00:10:22;;;;;;;9.30;6.78;;;;;;;5.83;43.48;100017.80;1771128;80;21057;-61
2021/12/27 00:12:50;;;;;;;9.03;6.65;;;;;;;5.84;43.47;100014.20;1765874;80;21534;-61
2021/12/27 00:15:17;;;;;;;9.73;6.78;;;;;;;5.84;43.48;100015.52;1770034;79;21521;-61
2021/12/27 00:17:45;;;;;;;9.73;6.55;;;;;;;5.83;43.48;100016.02;1770381;79;21071;-61
2021/12/27 00:20:15;;;;;;;8.75;6.37;;;;;;;5.82;43.48;100016.97;1760694;80;21518;-61
2021/12/27 00:22:43;;;;;;;9.30;5.65;;;;;;;5.84;43.48;100022.11;1789405;80;21524;-61
2021/12/27 00:25:10;;;;;;;10.45;7.67;;;;;;;5.83;43.48;100025.70;1748379;81;21058;-60
2021/12/27 00:27:38;;;;;;;9.75;6.85;;;;;;;5.83;43.50;100025.24;1770468;80;21471;-60
2021/12/27 00:30:06;;;;;;;8.83;5.97;;;;;;;5.83;43.48;100029.66;1767993;80;21143;-61
2021/12/27 00:32:36;;;;;;;9.43;6.30;;;;;;;5.83;43.51;100032.30;1772835;80;21116;-60
2021/12/27 00:35:02;;;;;;;8.08;6.30;;;;;;;5.82;43.48;100035.42;1768658;80;21112;-60
2021/12/27 00:37:29;;;;;;;9.18;6.53;;;;;;;5.82;43.49;100026.19;1776707;80;21065;-60
2021/12/27 00:39:55;;;;;;;10.08;6.62;;;;;;;5.83;43.51;100028.34;1767227;80;21056;-61
2021/12/27 00:42:21;;;;;;;10.50;7.22;;;;;;;5.83;43.52;100027.02;1775640;80;21113;-60
2021/12/27 00:44:48;;;;;;;12.05;7.35;;;;;;;5.83;43.51;100025.70;1774586;80;20986;-61
2021/12/27 00:47:14;;;;;;;10.43;6.92;;;;;;;5.82;43.49;100028.00;1773895;80;21565;-61
2021/12/27 00:49:41;;;;;;;9.20;6.53;;;;;;;5.83;43.50;100032.30;1776489;80;21041;-60
2021/12/27 00:52:08;;;;;;;11.50;7.20;;;;;;;5.82;43.50;100033.28;1762585;80;21013;-62
2021/12/27 00:54:35;;;;;;;9.58;6.62;;;;;;;5.83;43.50;100033.16;1762321;80;21950;-61
2021/12/27 00:57:02;;;;;;;8.08;6.25;;;;;;;5.83;43.52;100037.11;1770027;80;21077;-61
2021/12/27 00:59:29;;;;;;;9.55;6.65;;;;;;;5.83;43.50;100039.74;1773417;80;21045;-61
2021/12/27 01:01:56;;;;;;;8.08;6.03;;;;;;;5.83;43.52;100041.52;1756792;80;21018;-61
2021/12/27 01:04:23;;;;;;;9.53;6.33;;;;;;;5.83;43.52;100042.84;1751104;80;21053;-60
2021/12/27 01:06:49;;;;;;;9.95;6.67;;;;;;;5.83;43.53;100036.25;1756045;80;21069;-61
2021/12/27 01:09:30;;;;;;;10.45;6.75;;;;;;;5.82;43.53;100037.23;1768117;80;20998;-60
2021/12/27 01:14:27;;;;;;;8.73;6.90;;;;;;;5.82;43.52;100036.73;1757091;80;20996;-59
2021/12/27 01:16:46;;;;;;;9.03;6.22;;;;;;;5.82;43.52;100039.38;1767794;80;21054;-62
2021/12/27 01:19:12;;;;;;;10.38;6.12;;;;;;;5.81;43.53;100040.82;1770025;80;21121;-60
2021/12/27 01:21:39;;;;;;;10.10;6.97;;;;;;;5.82;43.53;100040.70;1768140;80;21072;-60
2021/12/27 01:24:06;;;;;;;8.43;6.25;;;;;;;5.82;43.53;100040.70;1772023;80;21132;-61
2021/12/27 01:26:32;;;;;;;9.18;6.58;;;;;;;5.82;43.53;100044.65;1769061;80;21064;-62
2021/12/27 01:29:00;;;;;;;9.20;6.05;;;;;;;5.83;43.53;100044.16;1768857;80;21044;-61
2021/12/27 01:31:28;;;;;;;10.08;6.42;;;;;;;5.82;43.54;100051.23;1772024;80;21147;-61
2021/12/27 01:33:55;;;;;;;9.38;6.78;;;;;;;5.82;43.54;100049.92;1774059;80;21624;-61
2021/12/27 01:36:21;;;;;;;11.43;7.15;;;;;;;5.82;43.55;100055.20;1769743;80;21093;-61
2021/12/27 01:38:48;;;;;;;7.37;5.75;;;;;;;5.82;43.53;100051.73;1772831;80;21050;-61
2021/12/27 01:41:15;;;;;;;7.30;6.03;;;;;;;5.83;43.54;100054.70;1768682;80;21132;-60
2021/12/27 01:43:42;;;;;;;8.80;6.87;;;;;;;5.82;43.54;100057.83;1768090;80;21134;-60
2021/12/27 01:46:17;;;;;;;9.23;6.00;;;;;;;5.82;43.54;100055.69;1763513;80;21010;-61
2021/12/27 01:48:54;;;;;;;9.55;6.50;;;;;;;5.81;43.55;100060.10;1765308;80;21007;-62
2021/12/27 01:51:16;;;;;;;9.35;6.83;;;;;;;5.81;43.57;100061.91;1765577;80;21041;-61
2021/12/27 01:53:44;;;;;;;7.87;5.85;;;;;;;5.81;43.55;100057.47;1765178;80;21602;-61
2021/12/27 01:56:11;;;;;;;8.05;6.05;;;;;;;5.82;43.56;100059.64;1760378;80;21131;-61
2021/12/27 01:58:38;;;;;;;8.95;6.67;;;;;;;5.81;43.56;100061.42;1766541;80;21530;-61
2021/12/27 02:01:07;;;;;;;8.40;6.05;;;;;;;5.81;43.57;100063.23;1774334;80;21014;-61
2021/12/27 02:03:35;;;;;;;10.05;6.22;;;;;;;5.80;43.57;100061.08;1771737;80;21108;-60
2021/12/27 02:06:05;;;;;;;8.78;6.05;;;;;;;5.81;43.57;100063.23;1767002;80;22413;-60
2021/12/27 02:08:32;;;;;;;8.88;6.60;;;;;;;5.79;43.57;100058.57;1767668;80;21053;-62
2021/12/27 02:10:58;;;;;;;7.58;5.62;;;;;;;5.81;43.57;100067.19;1765363;80;21016;-62
2021/12/27 02:13:26;;;;;;;8.08;5.55;;;;;;;5.81;43.57;100065.87;1773251;80;21037;-60
2021/12/27 02:15:54;;;;;;;8.55;6.05;;;;;;;5.81;43.57;100069.82;1772441;80;21022;-60
2021/12/27 02:18:20;;;;;;;8.33;5.97;;;;;;;5.82;43.57;100076.78;1769861;80;21556;-60
2021/12/27 02:20:47;;;;;;;7.95;6.10;;;;;;;5.82;43.56;100074.14;1767784;80;21166;-61
2021/12/27 02:23:18;;;;;;;8.65;6.50;;;;;;;5.81;43.56;100071.14;1769210;80;21081;-61
2021/12/27 02:25:47;;;;;;;8.48;6.35;;;;;;;5.81;43.56;100071.14;1755162;80;21061;-62
2021/12/27 02:28:14;;;;;;;9.80;6.97;;;;;;;5.81;43.56;100072.45;1763000;81;21038;-61
2021/12/27 02:30:43;;;;;;;7.97;5.80;;;;;;;5.81;43.57;100076.41;1771900;80;21572;-60
2021/12/27 02:33:10;;;;;;;8.58;6.53;;;;;;;5.80;43.56;100075.58;1770068;80;21149;-61
2021/12/27 02:35:39;;;;;;;8.85;6.45;;;;;;;5.80;43.57;100076.91;1768008;80;21454;-61
2021/12/27 02:38:12;;;;;;;8.98;6.12;;;;;;;5.81;43.56;100078.56;1769595;80;21521;-65
2021/12/27 02:40:39;;;;;;;9.23;6.50;;;;;;;5.81;43.56;100076.41;1771567;80;21530;-60
2021/12/27 02:43:09;;;;;;;9.08;7.00;;;;;;;5.80;43.58;100078.71;1769279;80;21029;-60
2021/12/27 02:45:40;;;;;;;9.68;6.30;;;;;;;5.80;43.57;100078.71;1763890;80;21100;-60
2021/12/27 02:48:06;;;;;;;8.85;6.53;;;;;;;5.80;43.58;100083.98;1759116;80;21470;-61
2021/12/27 02:50:34;;;;;;;9.18;6.22;;;;;;;5.79;43.57;100080.98;1774436;80;21040;-60
2021/12/27 02:53:01;;;;;;;9.48;6.25;;;;;;;5.79;43.58;100079.17;1766256;80;21494;-60
2021/12/27 02:55:27;;;;;;;7.50;5.90;;;;;;;5.80;43.57;100081.34;1780062;80;21009;-61
2021/12/27 02:57:54;;;;;;;8.68;6.55;;;;;;;5.78;43.58;100080.16;1774203;80;21150;-61
2021/12/27 03:00:27;;;;;;;8.00;5.85;;;;;;;5.78;43.57;100081.96;1771595;80;21629;-61
2021/12/27 03:02:54;;;;;;;9.55;6.47;;;;;;;5.79;43.59;100084.94;1770399;80;21081;-61
2021/12/27 03:05:22;;;;;;;8.25;6.45;;;;;;;5.78;43.60;100084.59;1768400;80;21069;-61
2021/12/27 03:07:50;;;;;;;7.90;5.92;;;;;;;5.78;43.59;100088.06;1766335;80;21605;-61
2021/12/27 03:10:21;;;;;;;9.18;6.30;;;;;;;5.78;43.58;100088.06;1769244;80;21061;-61
2021/12/27 03:12:48;;;;;;;10.03;7.17;;;;;;;5.78;43.58;100089.88;1768033;80;21139;-60
2021/12/27 03:15:16;;;;;;;9.95;7.17;;;;;;;5.78;43.58;100096.46;1762350;80;21581;-60
2021/12/27 03:17:45;;;;;;;8.10;5.95;;;;;;;5.77;43.59;100091.65;1767708;80;21073;-60
2021/12/27 03:20:12;;;;;;;10.10;6.83;;;;;;;5.78;43.59;100085.91;1770217;80;21055;-62
2021/12/27 03:22:40;;;;;;;9.03;6.22;;;;;;;5.77;43.59;100083.73;1758042;80;21940;-61
2021/12/27 03:25:16;;;;;;;9.40;6.42;;;;;;;5.78;43.59;100087.23;1778137;80;20998;-61
2021/12/27 03:27:43;;;;;;;9.58;6.95;;;;;;;5.78;43.59;100089.88;1781286;79;21079;-60
2021/12/27 03:30:14;;;;;;;8.35;6.03;;;;;;;5.77;43.61;100089.50;1747884;81;22045;-61
2021/12/27 03:32:40;;;;;;;8.68;6.55;;;;;;;5.77;43.58;100100.05;1749636;81;20997;-61
2021/12/27 03:35:16;;;;;;;11.90;6.80;;;;;;;5.77;43.61;100101.36;1765262;80;21494;-60
2021/12/27 03:37:41;;;;;;;10.03;7.00;;;;;;;5.76;43.60;100104.98;1748482;80;21014;-61
2021/12/27 03:40:10;;;;;;;9.70;6.87;;;;;;;5.76;43.64;100103.17;1747670;82;21045;-61
2021/12/27 03:42:37;;;;;;;9.13;6.53;;;;;;;5.77;43.63;100106.64;1750874;80;20994;-60
2021/12/27 03:45:04;;;;;;;9.23;6.75;;;;;;;5.77;43.61;100109.27;1778001;80;21060;-61
2021/12/27 03:47:31;;;;;;;9.68;6.85;;;;;;;5.76;43.62;100110.25;1762338;80;21118;-60
2021/12/27 03:49:57;;;;;;;7.12;5.90;;;;;;;5.76;43.62;100114.20;1766564;80;21030;-60
2021/12/27 03:52:24;;;;;;;10.95;7.05;;;;;;;5.76;43.64;100114.20;1759801;80;21010;-61
2021/12/27 03:54:50;;;;;;;9.50;7.03;;;;;;;5.75;43.61;100117.30;1763782;80;21037;-61
2021/12/27 03:57:17;;;;;;;8.90;7.00;;;;;;;5.76;43.65;100114.20;1764598;80;21018;-60
2021/12/27 04:02:13;;;;;;;7.92;6.28;;;;;;;5.76;43.64;100123.44;1762612;80;21104;-60
2021/12/27 04:04:41;;;;;;;8.95;6.95;;;;;;;5.76;43.62;100120.80;1761029;80;21054;-62
2021/12/27 04:07:08;;;;;;;9.65;7.10;;;;;;;5.75;43.63;100119.11;1762241;80;21025;-61
2021/12/27 04:09:36;;;;;;;8.08;6.37;;;;;;;5.75;43.63;100121.27;1763096;80;21058;-61
2021/12/27 04:12:06;;;;;;;7.90;5.95;;;;;;;5.76;43.64;100120.80;1770860;80;21145;-62
2021/12/27 04:14:33;;;;;;;9.75;7.33;;;;;;;5.75;43.63;100128.34;1764817;80;21120;-61
2021/12/27 04:16:59;;;;;;;8.95;6.58;;;;;;;5.75;43.63;100127.02;1757774;80;21053;-61
2021/12/27 04:19:25;;;;;;;9.25;6.22;;;;;;;5.74;43.63;100125.34;1767807;80;21022;-61
2021/12/27 04:21:53;;;;;;;7.45;6.45;;;;;;;5.75;43.65;100124.38;1769219;80;21117;-61
2021/12/27 04:24:19;;;;;;;8.40;6.42;;;;;;;5.76;43.64;100132.66;1770710;80;21782;-60
2021/12/27 04:26:45;;;;;;;8.53;6.30;;;;;;;5.75;43.62;100135.76;1765549;80;21698;-61
2021/12/27 04:29:12;;;;;;;9.15;6.70;;;;;;;5.75;43.65;100139.71;1765403;80;21058;-61
2021/12/27 04:31:38;;;;;;;7.65;6.50;;;;;;;5.75;43.63;100146.80;1762035;80;21113;-61
2021/12/27 04:34:06;;;;;;;9.55;7.08;;;;;;;5.76;43.64;100144.53;1770036;80;21010;-61
2021/12/27 04:36:32;;;;;;;8.35;6.87;;;;;;;5.76;43.63;100144.04;1767995;80;21347;-60
2021/12/27 04:38:58;;;;;;;8.78;6.05;;;;;;;5.76;43.64;100156.39;1767273;80;22037;-63
2021/12/27 04:41:25;;;;;;;7.97;6.45;;;;;;;5.75;43.63;100159.48;1767419;80;21093;-60
2021/12/27 04:43:51;;;;;;;8.40;6.62;;;;;;;5.75;43.63;100161.30;1762052;80;21057;-61
2021/12/27 04:46:17;;;;;;;8.03;6.60;;;;;;;5.75;43.62;100166.08;1761529;80;21529;-60
2021/12/27 04:48:44;;;;;;;10.58;6.85;;;;;;;5.76;43.64;100169.58;1763688;80;21113;-61
2021/12/27 04:51:10;;;;;;;8.68;6.55;;;;;;;5.76;43.63;100180.95;1760980;80;21038;-61
2021/12/27 04:53:37;;;;;;;8.80;6.75;;;;;;;5.74;43.65;100180.23;1766806;80;21483;-60
2021/12/27 04:56:04;;;;;;;9.75;7.08;;;;;;;5.76;43.62;100180.13;1760710;80;21055;-60
2021/12/27 04:58:30;;;;;;;9.63;7.60;;;;;;;5.76;43.61;100184.08;1766034;80;21067;-62
2021/12/27 05:00:57;;;;;;;8.50;6.70;;;;;;;5.74;43.65;100182.87;1764977;80;21143;-61
2021/12/27 05:03:24;;;;;;;8.10;6.47;;;;;;;5.74;43.61;100184.19;1760861;80;20994;-61
2021/12/27 05:05:50;;;;;;;8.70;6.20;;;;;;;5.75;43.65;100188.98;1768007;79;21048;-62
2021/12/27 05:08:17;;;;;;;11.00;7.87;;;;;;;5.74;43.65;100184.66;1766097;80;21081;-61
2021/12/27 05:10:44;;;;;;;9.68;7.45;;;;;;;5.74;43.67;100187.29;1768036;80;21545;-60
2021/12/27 05:13:11;;;;;;;10.78;7.50;;;;;;;5.74;43.67;100187.29;1766863;80;22135;-60
2021/12/27 05:15:37;;;;;;;9.70;6.85;;;;;;;5.74;43.68;100184.66;1776393;79;21030;-61
2021/12/27 05:18:04;;;;;;;8.15;6.30;;;;;;;5.74;43.66;100190.78;1774236;80;20998;-60
2021/12/27 05:20:31;;;;;;;11.33;6.80;;;;;;;5.74;43.66;100191.24;1760942;80;21597;-60
2021/12/27 05:22:57;;;;;;;9.43;7.37;;;;;;;5.74;43.66;100189.92;1771624;78;21073;-60
2021/12/27 05:25:23;;;;;;;10.10;7.47;;;;;;;5.73;43.66;100190.91;1776363;80;21105;-62
2021/12/27 05:27:50;;;;;;;9.45;7.08;;;;;;;5.75;43.65;100195.56;1774849;80;20991;-61
2021/12/27 05:30:16;;;;;;;9.58;7.12;;;;;;;5.72;43.66;100191.39;1760958;80;20999;-61
2021/12/27 05:32:44;;;;;;;9.33;7.33;;;;;;;5.74;43.66;100195.20;1749992;79;22151;-60
2021/12/27 05:35:11;;;;;;;9.95;6.67;;;;;;;5.75;43.66;100196.88;1781347;80;21003;-60
2021/12/27 05:37:38;;;;;;;9.28;6.90;;;;;;;5.75;43.66;100206.11;1765996;80;21541;-61
2021/12/27 05:40:07;;;;;;;9.60;7.60;;;;;;;5.74;43.67;100205.74;1760877;80;21487;-60
2021/12/27 05:42:34;;;;;;;8.53;7.08;;;;;;;5.72;43.67;100213.80;1778104;80;21053;-59
2021/12/27 05:45:01;;;;;;;10.30;7.42;;;;;;;5.73;43.69;100219.41;1773462;80;21587;-60
2021/12/27 05:47:27;;;;;;;8.45;7.17;;;;;;;5.73;43.69;100218.59;1769255;79;21050;-61
2021/12/27 05:49:54;;;;;;;10.93;7.37;;;;;;;5.73;43.68;100219.91;1773379;80;21187;-60
2021/12/27 05:52:21;;;;;;;8.70;7.22;;;;;;;5.73;43.68;100219.91;1772948;79;21513;-61
2021/12/27 05:54:47;;;;;;;8.65;7.37;;;;;;;5.73;43.68;100222.54;1761791;80;21191;-61
2021/12/27 06:10:07;;;;;;;8.35;7.47;;;;;;;7.10;42.13;100238.30;1782422;80;28136;-66
2021/12/27 06:12:34;;;;;;;7.90;7.08;;;;;;;7.19;41.62;100240.14;1753591;81;21519;-65
2021/12/27 06:15:01;;;;;;;8.43;7.05;;;;;;;7.14;41.54;100240.19;1754639;81;21103;-64
2021/12/27 06:17:27;;;;;;;8.28;7.15;;;;;;;7.04;41.56;100234.38;1755663;81;21666;-66
2021/12/27 06:19:53;;;;;;;9.13;7.22;;;;;;;6.96;41.63;100239.50;1752434;81;21077;-65
2021/12/27 06:22:20;;;;;;;9.58;7.25;;;;;;;6.88;41.69;100244.61;1753679;81;21006;-65
2021/12/27 06:24:47;;;;;;;9.53;7.45;;;;;;;6.80;41.79;100247.91;1753695;81;21029;-66
2021/12/27 06:27:13;;;;;;;8.48;7.17;;;;;;;6.71;41.86;100252.65;1753699;81;21151;-63
2021/12/27 06:29:40;;;;;;;9.73;6.92;;;;;;;6.62;41.96;100252.11;1753425;81;21001;-64
2021/12/27 06:32:13;;;;;;;10.03;7.92;;;;;;;6.55;42.07;100257.08;1755128;81;21041;-64
2021/12/27 06:34:36;;;;;;;9.68;7.67;;;;;;;6.49;42.17;100259.75;1756099;81;21544;-65
2021/12/27 06:37:03;;;;;;;8.88;7.50;;;;;;;6.43;42.27;100264.23;1753952;81;21021;-64
2021/12/27 06:39:30;;;;;;;9.28;7.85;;;;;;;6.38;42.35;100261.63;1753606;81;22947;-64
2021/12/27 06:41:56;;;;;;;10.00;8.00;;;;;;;6.33;42.44;100259.34;1753787;81;21041;-63
2021/12/27 06:44:23;;;;;;;10.50;8.10;;;;;;;6.27;42.53;100257.22;1757052;81;21179;-64
2021/12/27 06:46:49;;;;;;;10.30;7.95;;;;;;;6.22;42.60;100261.58;1757227;81;21033;-64
2021/12/27 06:49:16;;;;;;;9.78;8.13;;;;;;;6.19;42.68;100267.09;1754889;81;21081;-64
2021/12/27 06:51:42;;;;;;;10.10;7.85;;;;;;;6.16;42.72;100270.00;1694714;84;21231;-65
2021/12/27 06:54:08;;;;;;;11.95;8.43;;;;;;;6.13;42.79;100269.42;1693367;84;21074;-66
2021/12/27 06:56:35;;;;;;;9.00;7.33;;;;;;;6.09;42.84;100269.66;1695987;84;21042;-64
2021/12/27 06:59:02;;;;;;;10.15;8.00;;;;;;;6.06;42.91;100275.17;1696365;84;21021;-64
2021/12/27 07:01:29;;;;;;;10.78;7.85;;;;;;;6.04;42.98;100274.95;1695641;84;21004;-64
2021/12/27 07:03:55;;;;;;;9.50;8.03;;;;;;;6.01;43.01;100274.73;1689703;84;21638;-63
2021/12/27 07:06:22;;;;;;;9.85;7.92;;;;;;;6.00;43.05;100273.53;1689192;84;21042;-64
2021/12/27 07:08:48;;;;;;;9.40;7.65;;;;;;;5.97;43.09;100275.09;1698108;83;21050;-63
2021/12/27 07:11:15;;;;;;;10.82;7.83;;;;;;;5.95;43.14;100272.60;1697268;84;21558;-63
2021/12/27 07:13:42;;;;;;;10.82;8.00;;;;;;;5.93;43.16;100273.18;1697140;84;21054;-64
2021/12/27 07:16:08;;;;;;;10.55;8.78;;;;;;;5.93;43.21;100277.14;1697632;84;21101;-64
2021/12/27 07:18:34;;;;;;;10.90;8.60;;;;;;;5.91;43.24;100280.38;1697177;84;21102;-65
2021/12/27 07:21:01;;;;;;;12.20;9.10;;;;;;;5.90;43.27;100287.92;1699180;84;21032;-64
2021/12/27 07:23:27;;;;;;;10.95;8.33;;;;;;;5.90;43.28;100286.60;1698461;84;21113;-64
2021/12/27 07:25:54;;;;;;;10.95;8.53;;;;;;;5.88;43.33;100291.16;1722949;83;21057;-62
2021/12/27 07:28:21;;;;;;;9.88;8.28;;;;;;;5.88;43.36;100293.80;1694474;83;21161;-64
2021/12/27 07:30:49;;;;;;;9.30;7.80;;;;;;;5.87;43.37;100296.06;1689467;84;21063;-65
2021/12/27 07:33:15;;;;;;;11.25;8.43;;;;;;;5.86;43.39;100294.41;1707982;84;21088;-64
2021/12/27 07:35:42;;;;;;;11.03;8.20;;;;;;;5.85;43.40;100290.08;1707899;84;21050;-63
2021/12/27 07:38:09;;;;;;;11.40;8.85;;;;;;;5.84;43.44;100295.02;1708202;84;21477;-65
2021/12/27 07:40:36;;;;;;;9.80;8.35;;;;;;;5.84;43.45;100297.16;1709397;83;21114;-64
2021/12/27 07:43:02;;;;;;;10.70;8.58;;;;;;;5.84;43.48;100302.92;1708388;83;21537;-64
2021/12/27 07:45:29;;;;;;;9.70;7.92;;;;;;;5.84;43.48;100310.34;1707775;83;21060;-65
2021/12/27 07:47:56;;;;;;;12.20;8.25;;;;;;;5.84;43.48;100312.98;1706816;83;21527;-67
2021/12/27 07:50:23;;;;;;;11.10;8.70;;;;;;;5.84;43.50;100313.47;1706047;83;21045;-67
2021/12/27 07:52:51;;;;;;;11.12;8.83;;;;;;;5.83;43.51;100310.00;1703740;83;21544;-66
2021/12/27 07:55:18;;;;;;;10.70;8.28;;;;;;;5.84;43.54;100308.20;1705744;83;21108;-65
2021/12/27 07:57:44;;;;;;;11.90;9.05;;;;;;;5.84;43.55;100312.16;1707956;83;21068;-66
2021/12/27 08:00:12;;;;;;;11.12;8.90;;;;;;;5.84;43.53;100313.47;1696112;82;21030;-65
2021/12/27 08:02:38;;;;;;;11.03;8.98;;;;;;;5.84;43.55;100317.42;1703558;83;21547;-66
2021/12/27 08:05:06;;;;;;;10.90;8.60;;;;;;;5.85;43.54;100321.27;1702217;83;21226;-65
2021/12/27 08:07:33;;;;;;;10.88;8.93;;;;;;;5.85;43.55;100312.50;1695413;83;21618;-65
2021/12/27 08:10:00;;;;;;;12.23;8.65;;;;;;;5.85;43.55;100317.31;1694586;83;21051;-66
2021/12/27 08:12:26;;;;;;;10.38;7.87;;;;;;;5.84;43.55;100307.71;1677437;84;21014;-63
2021/12/27 08:14:53;;;;;;;10.43;8.80;;;;;;;5.84;43.59;100309.52;1669856;85;21033;-63
2021/12/27 08:17:19;;;;;;;12.88;8.90;;;;;;;5.84;43.60;100306.39;1677430;85;23355;-62
2021/12/27 08:19:47;;;;;;;11.75;9.43;;;;;;;5.85;43.59;100312.50;1667663;85;21029;-63
2021/12/27 08:22:14;;;;;;;10.48;8.50;;;;;;;5.85;43.59;100313.36;1678448;85;21525;-60
2021/12/27 08:24:40;;;;;;;11.10;9.90;;;;;;;5.85;43.59;100310.72;1673632;85;21022;-63
2021/12/27 08:27:07;;;;;;;10.38;9.00;;;;;;;5.85;43.60;100314.67;1670463;85;21013;-63
2021/12/27 08:29:34;;;;;;;11.45;9.68;;;;;;;5.86;43.58;100318.14;1676622;85;22444;-64
2021/12/27 08:32:02;;;;;;;10.80;8.80;;;;;;;5.87;43.61;100321.12;1677087;85;21059;-63
2021/12/27 08:34:29;;;;;;;13.15;9.53;;;;;;;5.86;43.61;100320.29;1664431;85;21040;-62
2021/12/27 08:36:56;;;;;;;10.20;8.35;;;;;;;5.87;43.59;100323.30;1656742;85;21074;-64
2021/12/27 08:39:22;;;;;;;12.58;9.75;;;;;;;5.88;43.61;100313.58;1689201;83;21141;-64
2021/12/27 08:41:48;;;;;;;10.95;8.93;;;;;;;5.87;43.61;100310.11;1661699;85;21912;-64
2021/12/27 08:44:15;;;;;;;9.25;8.15;;;;;;;5.89;43.63;100309.97;1666635;85;21070;-64
2021/12/27 08:46:42;;;;;;;10.88;8.75;;;;;;;5.90;43.62;100315.13;1664035;85;21661;-64
2021/12/27 08:49:09;;;;;;;11.65;9.30;;;;;;;5.92;43.61;100313.69;1666659;85;21074;-64
2021/12/27 08:51:35;;;;;;;11.70;9.05;;;;;;;5.93;43.61;100307.92;1686903;83;21547;-62
2021/12/27 08:54:03;;;;;;;11.75;9.35;;;;;;;5.94;43.59;100319.67;1656917;85;21131;-65
2021/12/27 08:56:30;;;;;;;10.75;8.48;;;;;;;5.95;43.56;100316.12;1656389;85;21073;-65
2021/12/27 08:58:57;;;;;;;13.05;10.13;;;;;;;5.97;43.57;100312.02;1661596;85;21073;-66
2021/12/27 09:01:23;;;;;;;11.38;9.13;;;;;;;5.97;43.55;100310.23;1677931;85;21043;-63
2021/12/27 09:03:50;;;;;;;12.37;8.95;;;;;;;5.97;43.55;100315.52;1671880;85;21062;-65
2021/12/27 09:06:16;;;;;;;13.25;9.18;;;;;;;5.98;43.67;100313.22;1662602;85;23294;-66
2021/12/27 09:08:45;;;;;;;12.93;10.45;;;;;;;5.99;44.06;100312.27;1668466;83;21063;-66
2021/12/27 09:11:11;;;;;;;11.12;9.28;;;;;;;5.99;44.14;100305.67;1690544;84;21802;-64
2021/12/27 09:13:38;;;;;;;13.28;10.85;;;;;;;6.01;44.18;100314.30;1688227;84;21116;-65
2021/12/27 09:16:04;;;;;;;11.85;10.00;;;;;;;6.02;44.16;100306.72;1683625;84;21025;-64
2021/12/27 09:18:35;;;;;;;11.48;9.45;;;;;;;6.02;44.16;100302.77;1688737;83;21033;-65
2021/12/27 09:21:03;;;;;;;12.43;9.83;;;;;;;6.03;44.13;100303.14;1669624;84;21643;-64
2021/12/27 09:23:30;;;;;;;13.60;10.63;;;;;;;6.04;44.11;100303.48;1689328;83;21162;-64
2021/12/27 09:25:56;;;;;;;11.38;9.08;;;;;;;6.04;44.08;100303.48;1716405;83;21545;-64
2021/12/27 09:28:22;;;;;;;12.80;10.63;;;;;;;6.05;44.09;100297.25;1709483;83;21026;-64
2021/12/27 09:30:49;;;;;;;13.08;10.30;;;;;;;6.05;44.03;100296.42;1699192;83;21195;-64
2021/12/27 09:33:15;;;;;;;14.05;10.80;;;;;;;6.07;44.00;100295.81;1703761;83;21133;-64
2021/12/27 09:35:41;;;;;;;12.45;10.20;;;;;;;6.09;43.98;100296.53;1694817;83;21323;-64
2021/12/27 09:38:11;;;;;;;12.33;10.00;;;;;;;6.09;43.96;100295.20;1706433;83;21062;-64
2021/12/27 09:40:38;;;;;;;13.83;10.28;;;;;;;6.10;43.92;100299.05;1698747;83;21100;-61
2021/12/27 09:43:04;;;;;;;12.73;10.15;;;;;;;6.12;43.89;100296.75;1696435;83;21694;-62
2021/12/27 09:45:31;;;;;;;13.32;11.30;;;;;;;6.13;43.87;100293.16;1699043;83;21050;-63
2021/12/27 09:47:57;;;;;;;13.68;10.28;;;;;;;6.13;43.85;100291.84;1698600;83;21141;-61
2021/12/27 09:50:32;;;;;;;13.53;10.70;;;;;;;6.16;43.83;100291.57;1685763;83;21541;-62
2021/12/27 09:53:01;;;;;;;13.50;10.75;;;;;;;6.16;43.81;100292.89;1707729;83;21094;-62
2021/12/27 09:55:27;;;;;;;13.43;10.58;;;;;;;6.16;43.80;100289.79;1691623;83;21219;-60
2021/12/27 09:57:55;;;;;;;12.78;10.13;;;;;;;6.19;43.79;100296.61;1701599;83;21617;-62
2021/12/27 10:00:21;;;;;;;14.15;10.98;;;;;;;6.20;43.75;100295.63;1703111;83;21030;-60
2021/12/27 10:02:53;;;;;;;13.10;10.88;;;;;;;6.21;43.75;100290.23;1709171;83;21043;-60
2021/12/27 10:05:22;;;;;;;12.98;10.05;;;;;;;6.23;43.75;100294.06;1692367;83;21038;-60
2021/12/27 10:07:50;;;;;;;13.45;11.35;;;;;;;6.25;43.70;100298.73;1711375;83;21069;-61
2021/12/27 10:10:18;;;;;;;13.80;11.30;;;;;;;6.27;43.70;100304.23;1697867;83;21064;-60
2021/12/27 10:12:46;;;;;;;13.78;11.45;;;;;;;6.28;43.68;100307.23;1697434;83;21115;-61
2021/12/27 10:15:22;;;;;;;12.25;10.53;;;;;;;6.29;43.66;100302.79;1695432;83;21089;-62
2021/12/27 10:17:50;;;;;;;15.13;11.03;;;;;;;6.31;43.63;100296.91;1705491;83;21037;-61
2021/12/27 10:20:20;;;;;;;13.20;10.95;;;;;;;6.32;43.64;100298.59;1704341;83;21093;-62
2021/12/27 10:22:54;;;;;;;13.20;11.03;;;;;;;6.32;43.61;100291.13;1702286;83;21092;-61
2021/12/27 10:25:25;;;;;;;12.13;10.70;;;;;;;6.33;43.59;100300.25;1701826;83;21109;-60
2021/12/27 10:27:55;;;;;;;13.30;10.68;;;;;;;6.35;43.58;100300.12;1700686;82;21035;-61
2021/12/27 10:30:30;;;;;;;12.58;10.63;;;;;;;6.36;43.59;100303.14;1702905;83;21170;-61
2021/12/27 10:33:20;;;;;;;14.43;11.57;;;;;;;6.36;43.56;100303.97;1706021;82;21145;-62
2021/12/27 10:35:50;;;;;;;14.60;10.72;;;;;;;6.38;43.56;100309.13;1703727;82;21079;-63
2021/12/27 10:38:31;;;;;;;13.83;11.80;;;;;;;6.38;43.55;100306.48;1690931;82;21623;-60
2021/12/27 10:41:04;;;;;;;13.25;10.78;;;;;;;6.38;43.53;100304.67;1697994;83;21081;-62
2021/12/27 10:43:46;;;;;;;13.43;10.85;;;;;;;6.39;43.52;100305.02;1681746;83;21088;-61
2021/12/27 10:46:16;;;;;;;16.35;11.68;;;;;;;6.39;43.49;100304.19;1685163;83;21108;-61
2021/12/27 10:48:46;;;;;;;12.88;10.93;;;;;;;6.39;43.48;100306.33;1702400;83;21564;-62
2021/12/27 10:51:13;;;;;;;15.43;12.37;;;;;;;6.39;43.48;100309.46;1680220;83;21532;-61
2021/12/27 10:53:55;;;;;;;15.28;11.97;;;;;;;6.37;43.47;100314.86;1680522;82;21093;-62
2021/12/27 10:56:25;;;;;;;15.25;10.90;;;;;;;6.39;43.46;100318.70;1687034;83;21699;-62
2021/12/27 10:58:55;;;;;;;14.50;11.18;;;;;;;6.38;43.47;100310.45;1681099;83;21224;-63
2021/12/27 11:01:24;;;;;;;13.95;11.43;;;;;;;6.39;43.46;100306.83;1686187;83;21100;-62
2021/12/27 11:03:57;;;;;;;15.55;12.90;;;;;;;6.37;43.43;100316.18;1684931;83;21116;-61
2021/12/27 11:06:29;;;;;;;13.85;11.57;;;;;;;6.37;43.46;100313.54;1683334;83;21092;-62
2021/12/27 11:08:58;;;;;;;16.93;12.07;;;;;;;6.38;43.45;100307.80;1685622;83;21143;-62
2021/12/27 11:11:26;;;;;;;15.43;12.53;;;;;;;6.38;43.43;100303.84;1666430;83;21160;-62
2021/12/27 11:13:55;;;;;;;14.95;12.10;;;;;;;6.36;43.42;100309.24;1671462;84;21466;-62
2021/12/27 11:16:23;;;;;;;16.10;12.65;;;;;;;6.35;43.42;100310.20;1665853;84;21046;-63
2021/12/27 11:18:50;;;;;;;16.42;12.28;;;;;;;6.36;43.42;100314.52;1671333;84;21102;-61
2021/12/27 11:21:23;;;;;;;15.23;12.37;;;;;;;6.37;43.43;100316.18;1683803;84;21052;-63
2021/12/27 11:23:51;;;;;;;14.05;12.30;;;;;;;6.35;43.44;100318.11;1673936;84;21184;-64
2021/12/27 11:26:23;;;;;;;15.28;12.00;;;;;;;6.35;43.44;100314.16;1661360;84;21101;-63
2021/12/27 11:28:50;;;;;;;16.52;13.10;;;;;;;6.35;43.44;100315.47;1662938;84;21548;-63
2021/12/27 11:31:26;;;;;;;15.05;12.07;;;;;;;6.34;43.43;100312.49;1675107;84;21114;-62
2021/12/27 11:34:05;;;;;;;17.67;12.93;;;;;;;6.34;43.43;100311.17;1674847;84;21675;-62
2021/12/27 11:36:37;;;;;;;17.15;12.73;;;;;;;6.34;43.44;100316.94;1665652;84;21540;-64
2021/12/27 11:39:28;;;;;;;17.73;12.47;;;;;;;6.33;43.42;100314.77;1670522;84;21053;-62
2021/12/27 11:42:07;;;;;;;17.48;12.53;;;;;;;6.33;43.43;100317.89;1662025;84;21635;-62
2021/12/27 11:44:53;;;;;;;16.12;13.00;;;;;;;6.32;43.44;100319.70;1665635;84;21092;-63
2021/12/27 11:47:29;;;;;;;16.12;13.20;;;;;;;6.31;43.45;100316.69;1680920;84;21074;-61